createdAt,value
2022-10-17T00:00:59.603Z,15.25
2022-10-17T00:01:59.337Z,15.27
2022-10-17T00:02:59.348Z,15.26
2022-10-17T00:04:02.138Z,15.28
2022-10-17T00:04:59.323Z,15.25
2022-10-17T00:05:59.487Z,15.29
2022-10-17T00:06:59.323Z,15.3
2022-10-17T00:07:59.233Z,15.36
2022-10-17T00:08:59.126Z,15.33
2022-10-17T00:09:59.099Z,15.34
2022-10-17T00:10:59.595Z,15.31
2022-10-17T00:11:59.486Z,15.35
2022-10-17T00:12:59.222Z,15.42
2022-10-17T00:13:59.244Z,15.36
2022-10-17T00:15:02.452Z,15.33
2022-10-17T00:15:59.489Z,15.32
2022-10-17T00:16:59.226Z,15.32
2022-10-17T00:17:59.134Z,15.31
2022-10-17T00:18:59.277Z,15.36
2022-10-17T00:19:59.297Z,15.4
2022-10-17T00:20:59.481Z,15.43
2022-10-17T00:21:59.259Z,15.52
2022-10-17T00:22:59.276Z,15.5
2022-10-17T00:23:59.124Z,15.5
2022-10-17T00:24:59.317Z,15.47
2022-10-17T00:26:05.173Z,15.49
2022-10-17T00:26:59.488Z,15.5
2022-10-17T00:27:59.194Z,15.51
2022-10-17T00:28:59.328Z,15.51
2022-10-17T00:29:59.290Z,15.62
2022-10-17T00:30:59.573Z,15.67
2022-10-17T00:31:59.213Z,15.68
2022-10-17T00:32:59.142Z,15.61
2022-10-17T00:33:59.237Z,15.67
2022-10-17T00:34:59.188Z,15.62
2022-10-17T00:35:59.551Z,15.59
2022-10-17T00:37:02.151Z,15.54
2022-10-17T00:37:59.211Z,15.5
2022-10-17T00:38:59.152Z,15.42
2022-10-17T00:39:59.275Z,15.43
2022-10-17T00:40:59.621Z,15.44
2022-10-17T00:41:59.548Z,15.45
2022-10-17T00:42:59.197Z,15.42
2022-10-17T00:43:59.209Z,15.39
2022-10-17T00:44:59.203Z,15.47
2022-10-17T00:45:59.555Z,15.39
2022-10-17T00:46:59.331Z,15.44
2022-10-17T00:48:02.155Z,15.45
2022-10-17T00:48:59.193Z,15.4
2022-10-17T00:49:59.264Z,15.4
2022-10-17T00:50:59.594Z,15.38
2022-10-17T00:51:59.273Z,15.33
2022-10-17T00:52:59.227Z,15.24
2022-10-17T00:53:59.110Z,15.23
2022-10-17T00:54:59.111Z,15.2
2022-10-17T00:55:59.552Z,15.18
2022-10-17T00:56:59.486Z,15.18
2022-10-17T00:57:59.180Z,15.18
2022-10-17T00:59:02.209Z,15.17
2022-10-17T00:59:59.252Z,15.13
2022-10-17T01:00:59.790Z,15.14
2022-10-17T01:01:59.223Z,15.05
2022-10-17T01:02:59.128Z,15.08
2022-10-17T01:03:59.112Z,15.1
2022-10-17T01:04:59.218Z,15.1
2022-10-17T01:05:59.553Z,15.09
2022-10-17T01:06:59.296Z,15.13
2022-10-17T01:07:59.225Z,15.15
2022-10-17T01:08:59.132Z,15.14
2022-10-17T01:10:02.262Z,15.17
2022-10-17T01:10:59.489Z,15.16
2022-10-17T01:11:59.490Z,15.13
2022-10-17T01:12:59.199Z,15.1
2022-10-17T01:13:59.194Z,15.07
2022-10-17T01:14:59.208Z,15.06
2022-10-17T01:16:05.215Z,15.04
2022-10-17T01:16:59.292Z,15.03
2022-10-17T01:17:59.184Z,15.01
2022-10-17T01:18:59.223Z,14.99
2022-10-17T01:19:59.220Z,14.99
2022-10-17T01:20:59.552Z,15.01
2022-10-17T01:21:59.113Z,15.02
2022-10-17T01:22:59.149Z,15
2022-10-17T01:23:59.212Z,15.01
2022-10-17T01:24:59.132Z,14.94
2022-10-17T01:26:00.550Z,14.95
2022-10-17T01:27:05.207Z,14.91
2022-10-17T01:27:59.299Z,14.86
2022-10-17T01:28:59.185Z,14.85
2022-10-17T01:29:59.277Z,14.84
2022-10-17T01:30:59.323Z,14.88
2022-10-17T01:31:59.480Z,14.86
2022-10-17T01:32:59.210Z,14.9
2022-10-17T01:33:59.267Z,14.92
2022-10-17T01:34:59.302Z,14.89
2022-10-17T01:36:03.259Z,14.92
2022-10-17T01:36:59.530Z,14.89
2022-10-17T01:38:02.112Z,14.84
2022-10-17T01:38:59.302Z,14.85
2022-10-17T01:39:59.228Z,14.85
2022-10-17T01:40:59.154Z,14.86
2022-10-17T01:41:59.567Z,14.85
2022-10-17T01:42:59.180Z,14.93
2022-10-17T01:43:59.105Z,14.88
2022-10-17T01:44:59.119Z,14.86
2022-10-17T01:45:59.223Z,14.87
2022-10-17T01:46:59.562Z,14.79
2022-10-17T01:47:59.192Z,14.81
2022-10-17T01:49:02.143Z,14.79
2022-10-17T01:49:59.217Z,14.78
2022-10-17T01:50:59.225Z,14.75
2022-10-17T01:51:59.479Z,14.77
2022-10-17T01:52:59.302Z,14.76
2022-10-17T01:53:59.120Z,14.73
2022-10-17T01:54:59.210Z,14.68
2022-10-17T01:55:59.236Z,14.71
2022-10-17T01:56:59.483Z,14.7
2022-10-17T01:57:59.288Z,14.65
2022-10-17T01:58:59.343Z,14.61
2022-10-17T02:00:02.439Z,14.62
2022-10-17T02:00:59.267Z,14.62
2022-10-17T02:01:59.596Z,14.63
2022-10-17T02:02:59.290Z,14.62
2022-10-17T02:03:59.241Z,14.63
2022-10-17T02:04:59.310Z,14.61
2022-10-17T02:05:59.260Z,14.64
2022-10-17T02:06:59.612Z,14.71
2022-10-17T02:07:59.344Z,14.72
2022-10-17T02:08:59.193Z,14.69
2022-10-17T02:09:59.123Z,14.71
2022-10-17T02:11:02.164Z,14.73
2022-10-17T02:11:59.510Z,14.68
2022-10-17T02:12:59.217Z,14.66
2022-10-17T02:13:59.301Z,14.77
2022-10-17T02:14:59.204Z,14.75
2022-10-17T02:15:59.131Z,14.74
2022-10-17T02:16:59.480Z,14.74
2022-10-17T02:17:59.217Z,14.72
2022-10-17T02:18:59.216Z,14.69
2022-10-17T02:19:59.244Z,14.76
2022-10-17T02:20:59.308Z,14.76
2022-10-17T02:22:05.169Z,14.72
2022-10-17T02:22:59.279Z,14.71
2022-10-17T02:23:59.125Z,14.67
2022-10-17T02:24:59.214Z,14.65
2022-10-17T02:25:59.227Z,14.62
2022-10-17T02:26:59.555Z,14.63
2022-10-17T02:27:59.133Z,14.64
2022-10-17T02:28:59.187Z,14.61
2022-10-17T02:29:59.265Z,14.56
2022-10-17T02:30:59.326Z,14.55
2022-10-17T02:31:59.473Z,14.54
2022-10-17T02:33:02.253Z,14.5
2022-10-17T02:33:59.201Z,14.52
2022-10-17T02:34:59.125Z,14.53
2022-10-17T02:35:59.114Z,14.58
2022-10-17T02:36:59.553Z,14.62
2022-10-17T02:37:59.198Z,14.58
2022-10-17T02:38:59.258Z,14.52
2022-10-17T02:39:59.260Z,14.5
2022-10-17T02:40:59.259Z,14.48
2022-10-17T02:41:59.638Z,14.44
2022-10-17T02:42:59.239Z,14.46
2022-10-17T02:44:02.601Z,14.41
2022-10-17T02:44:59.308Z,14.38
2022-10-17T02:45:59.187Z,14.34
2022-10-17T02:46:59.560Z,14.39
2022-10-17T02:47:59.205Z,14.38
2022-10-17T02:48:59.135Z,14.37
2022-10-17T02:49:59.294Z,14.36
2022-10-17T02:50:59.258Z,14.39
2022-10-17T02:51:59.487Z,14.36
2022-10-17T02:52:59.301Z,14.34
2022-10-17T02:53:59.194Z,14.33
2022-10-17T02:55:02.176Z,14.29
2022-10-17T02:55:59.193Z,14.28
2022-10-17T02:56:59.148Z,14.28
2022-10-17T02:57:59.270Z,14.28
2022-10-17T02:58:59.205Z,14.3
2022-10-17T02:59:59.142Z,14.27
2022-10-17T03:00:59.218Z,14.33
2022-10-17T03:01:59.557Z,14.32
2022-10-17T03:02:59.215Z,14.32
2022-10-17T03:03:59.118Z,14.33
2022-10-17T03:04:59.231Z,14.36
2022-10-17T03:06:02.157Z,14.35
2022-10-17T03:06:59.483Z,14.31
2022-10-17T03:07:59.226Z,14.34
2022-10-17T03:08:59.112Z,14.36
2022-10-17T03:09:59.108Z,14.34
2022-10-17T03:10:59.113Z,14.34
2022-10-17T03:11:59.196Z,14.37
2022-10-17T03:12:59.554Z,14.36
2022-10-17T03:13:59.333Z,14.34
2022-10-17T03:14:59.225Z,14.34
2022-10-17T03:15:59.142Z,14.35
2022-10-17T03:17:05.167Z,14.36
2022-10-17T03:17:59.289Z,14.33
2022-10-17T03:18:59.243Z,14.32
2022-10-17T03:19:59.259Z,14.33
2022-10-17T03:20:59.342Z,14.33
2022-10-17T03:21:59.524Z,14.33
2022-10-17T03:22:59.217Z,14.34
2022-10-17T03:23:59.100Z,14.35
2022-10-17T03:24:59.139Z,14.34
2022-10-17T03:25:59.272Z,14.33
2022-10-17T03:26:59.306Z,14.33
2022-10-17T03:28:05.172Z,14.33
2022-10-17T03:28:59.364Z,14.38
2022-10-17T03:29:59.180Z,14.4
2022-10-17T03:30:59.123Z,14.38
2022-10-17T03:31:59.560Z,14.39
2022-10-17T03:32:59.197Z,14.39
2022-10-17T03:33:59.229Z,14.4
2022-10-17T03:34:59.240Z,14.42
2022-10-17T03:35:59.260Z,14.41
2022-10-17T03:36:59.666Z,14.34
2022-10-17T03:37:59.211Z,14.27
2022-10-17T03:39:02.156Z,14.35
2022-10-17T03:39:59.220Z,14.4
2022-10-17T03:40:59.158Z,14.37
2022-10-17T03:41:59.569Z,14.37
2022-10-17T03:42:59.797Z,14.38
2022-10-17T03:43:59.299Z,14.38
2022-10-17T03:44:59.247Z,14.33
2022-10-17T03:45:59.216Z,14.22
2022-10-17T03:46:59.491Z,14.24
2022-10-17T03:47:59.299Z,14.27
2022-10-17T03:48:59.170Z,14.26
2022-10-17T03:50:02.138Z,14.23
2022-10-17T03:50:59.193Z,14.29
2022-10-17T03:51:59.564Z,14.28
2022-10-17T03:52:59.276Z,14.17
2022-10-17T03:53:59.121Z,14.24
2022-10-17T03:54:59.221Z,14.23
2022-10-17T03:55:59.163Z,14.28
2022-10-17T03:56:59.489Z,14.23
2022-10-17T03:57:59.537Z,14.19
2022-10-17T03:58:59.325Z,14.22
2022-10-17T03:59:59.280Z,14.16
2022-10-17T04:01:02.318Z,14.28
2022-10-17T04:01:59.489Z,14.28
2022-10-17T04:02:59.106Z,14.28
2022-10-17T04:03:59.245Z,14.29
2022-10-17T04:04:59.303Z,14.22
2022-10-17T04:05:59.245Z,14.26
2022-10-17T04:06:59.481Z,14.24
2022-10-17T04:08:02.387Z,14.25
2022-10-17T04:08:59.125Z,14.26
2022-10-17T04:09:59.139Z,14.2
2022-10-17T04:10:59.266Z,14.18
2022-10-17T04:12:02.292Z,14.19
2022-10-17T04:12:59.479Z,14.2
2022-10-17T04:13:59.299Z,14.22
2022-10-17T04:14:59.132Z,14.28
2022-10-17T04:15:59.224Z,14.28
2022-10-17T04:17:00.261Z,14.34
2022-10-17T04:17:59.153Z,14.4
2022-10-17T04:18:59.098Z,14.39
2022-10-17T04:19:59.284Z,14.38
2022-10-17T04:20:59.294Z,14.36
2022-10-17T04:21:59.262Z,14.41
2022-10-17T04:23:05.142Z,14.5
2022-10-17T04:23:59.215Z,14.53
2022-10-17T04:24:59.258Z,14.51
2022-10-17T04:25:59.172Z,14.47
2022-10-17T04:26:59.268Z,14.46
2022-10-17T04:27:59.482Z,14.45
2022-10-17T04:28:59.137Z,14.48
2022-10-17T04:29:59.121Z,14.46
2022-10-17T04:30:59.215Z,14.4
2022-10-17T04:31:59.267Z,14.45
2022-10-17T04:32:59.294Z,14.48
2022-10-17T04:34:02.191Z,14.5
2022-10-17T04:34:59.336Z,14.48
2022-10-17T04:35:59.205Z,14.49
2022-10-17T04:36:59.245Z,14.53
2022-10-17T04:37:59.483Z,14.5
2022-10-17T04:38:59.221Z,14.5
2022-10-17T04:39:59.114Z,14.51
2022-10-17T04:40:59.125Z,14.53
2022-10-17T04:41:59.115Z,14.58
2022-10-17T04:42:59.590Z,14.57
2022-10-17T04:43:59.218Z,14.56
2022-10-17T04:45:02.407Z,14.56
2022-10-17T04:45:59.289Z,14.58
2022-10-17T04:46:59.125Z,14.58
2022-10-17T04:47:59.554Z,14.58
2022-10-17T04:48:59.128Z,14.6
2022-10-17T04:49:59.247Z,14.65
2022-10-17T04:50:59.225Z,14.69
2022-10-17T04:51:59.304Z,14.66
2022-10-17T04:52:59.244Z,14.56
2022-10-17T04:53:59.547Z,14.54
2022-10-17T04:54:59.207Z,14.47
2022-10-17T04:56:02.264Z,14.47
2022-10-17T04:56:59.198Z,14.52
2022-10-17T04:57:59.579Z,14.53
2022-10-17T04:58:59.321Z,14.45
2022-10-17T04:59:59.370Z,14.4
2022-10-17T05:00:59.304Z,14.42
2022-10-17T05:01:59.255Z,14.47
2022-10-17T05:02:59.533Z,14.51
2022-10-17T05:03:59.204Z,14.5
2022-10-17T05:04:59.122Z,14.48
2022-10-17T05:05:59.225Z,14.46
2022-10-17T05:07:02.126Z,14.46
2022-10-17T05:07:59.494Z,14.42
2022-10-17T05:08:59.294Z,14.37
2022-10-17T05:09:59.296Z,14.37
2022-10-17T05:12:09.492Z,14.38
2022-10-17T05:13:06.561Z,14.4
2022-10-17T05:14:06.667Z,14.41
2022-10-17T05:15:06.630Z,14.38
2022-10-17T05:16:06.554Z,14.33
2022-10-17T05:17:09.568Z,14.29
2022-10-17T05:18:06.801Z,14.28
2022-10-17T05:19:06.603Z,14.26
2022-10-17T05:20:06.570Z,14.25
2022-10-17T05:21:06.522Z,14.26
2022-10-17T05:22:06.554Z,14.25
2022-10-17T05:23:06.808Z,14.27
2022-10-17T05:24:06.445Z,14.34
2022-10-17T05:25:06.453Z,14.38
2022-10-17T05:26:06.435Z,14.35
2022-10-17T05:27:06.427Z,14.28
2022-10-17T05:28:09.583Z,14.31
2022-10-17T05:29:06.691Z,14.31
2022-10-17T05:30:06.489Z,14.3
2022-10-17T05:31:06.558Z,14.27
2022-10-17T05:32:06.574Z,14.24
2022-10-17T05:33:06.803Z,14.21
2022-10-17T05:34:09.052Z,14.18
2022-10-17T05:35:06.530Z,14.2
2022-10-17T05:36:06.511Z,14.19
2022-10-17T05:37:06.491Z,14.17
2022-10-17T05:38:06.877Z,14.18
2022-10-17T05:39:09.560Z,14.18
2022-10-17T05:40:06.512Z,14.23
2022-10-17T05:41:06.449Z,14.24
2022-10-17T05:42:06.436Z,14.27
2022-10-17T05:43:07.020Z,14.3
2022-10-17T05:44:06.651Z,14.33
2022-10-17T05:45:06.412Z,14.31
2022-10-17T05:46:06.426Z,14.36
2022-10-17T05:47:06.533Z,14.37
2022-10-17T05:48:06.901Z,14.35
2022-10-17T05:49:15.085Z,14.34
2022-10-17T05:50:09.500Z,14.3
2022-10-17T05:51:06.601Z,14.32
2022-10-17T05:52:06.506Z,14.32
2022-10-17T05:53:06.864Z,14.33
2022-10-17T05:54:06.483Z,14.3
2022-10-17T05:55:06.533Z,14.29
2022-10-17T05:56:06.542Z,14.28
2022-10-17T05:57:06.436Z,14.29
2022-10-17T05:58:06.467Z,14.28
2022-10-17T05:59:06.574Z,14.29
2022-10-17T06:00:06.576Z,14.3
2022-10-17T06:01:12.075Z,14.29
2022-10-17T06:02:06.598Z,14.29
2022-10-17T06:03:06.868Z,14.28
2022-10-17T06:04:06.496Z,14.34
2022-10-17T06:05:06.438Z,14.32
2022-10-17T06:06:06.443Z,14.38
2022-10-17T06:07:06.428Z,14.4
2022-10-17T06:08:06.800Z,14.42
2022-10-17T06:09:06.617Z,14.41
2022-10-17T06:10:06.488Z,14.39
2022-10-17T06:11:09.275Z,14.38
2022-10-17T06:12:09.417Z,14.36
2022-10-17T06:13:06.858Z,14.35
2022-10-17T06:14:06.525Z,14.34
2022-10-17T06:15:06.409Z,14.36
2022-10-17T06:16:06.431Z,14.38
2022-10-17T06:17:06.454Z,14.39
2022-10-17T06:18:06.791Z,14.42
2022-10-17T06:19:06.439Z,14.45
2022-10-17T06:20:06.500Z,14.47
2022-10-17T06:21:06.500Z,14.47
2022-10-17T06:22:06.453Z,14.49
2022-10-17T06:23:12.571Z,14.51
2022-10-17T06:24:06.537Z,14.55
2022-10-17T06:25:06.528Z,14.57
2022-10-17T06:26:06.649Z,14.55
2022-10-17T06:27:10.931Z,14.55
2022-10-17T06:28:06.802Z,14.6
2022-10-17T06:29:06.502Z,14.65
2022-10-17T06:30:06.506Z,14.59
2022-10-17T06:31:06.594Z,14.64
2022-10-17T06:32:08.610Z,14.67
2022-10-17T06:33:06.867Z,14.68
2022-10-17T06:34:09.546Z,14.8
2022-10-17T06:35:06.554Z,14.81
2022-10-17T06:36:06.483Z,14.81
2022-10-17T06:37:06.497Z,14.78
2022-10-17T06:38:06.868Z,14.83
2022-10-17T06:39:06.599Z,14.9
2022-10-17T06:40:06.560Z,14.95
2022-10-17T06:41:06.601Z,14.94
2022-10-17T06:42:06.612Z,14.99
2022-10-17T06:43:07.001Z,14.98
2022-10-17T06:44:06.588Z,15.01
2022-10-17T06:45:09.624Z,15.02
2022-10-17T06:46:06.554Z,15.02
2022-10-17T06:47:06.437Z,15.1
2022-10-17T06:48:06.784Z,15.18
2022-10-17T06:49:06.489Z,15.2
2022-10-17T06:50:06.505Z,15.22
2022-10-17T06:51:08.261Z,15.26
2022-10-17T06:52:06.426Z,15.28
2022-10-17T06:53:06.872Z,15.32
2022-10-17T06:54:06.502Z,15.36
2022-10-17T06:55:06.435Z,15.34
2022-10-17T06:56:09.597Z,15.33
2022-10-17T06:57:06.612Z,15.38
2022-10-17T06:58:06.805Z,15.39
2022-10-17T06:59:06.635Z,15.4
2022-10-17T07:00:06.415Z,15.39
2022-10-17T07:01:06.606Z,15.4
2022-10-17T07:02:06.548Z,15.37
2022-10-17T07:03:07.146Z,15.35
2022-10-17T07:04:06.574Z,15.34
2022-10-17T07:05:06.547Z,15.38
2022-10-17T07:06:06.520Z,15.49
2022-10-17T07:07:09.492Z,15.52
2022-10-17T07:08:06.798Z,15.62
2022-10-17T07:09:06.653Z,15.67
2022-10-17T07:10:06.620Z,15.69
2022-10-17T07:11:06.464Z,15.73
2022-10-17T07:12:06.437Z,15.78
2022-10-17T07:13:06.809Z,15.8
2022-10-17T07:14:06.476Z,15.8
2022-10-17T07:15:06.508Z,15.89
2022-10-17T07:16:06.568Z,15.91
2022-10-17T07:17:06.585Z,15.95
2022-10-17T07:18:12.460Z,16
2022-10-17T07:19:06.600Z,16.03
2022-10-17T07:20:06.408Z,16.02
2022-10-17T07:21:06.535Z,16.11
2022-10-17T07:22:06.433Z,16.18
2022-10-17T07:23:06.916Z,16.28
2022-10-17T07:24:06.573Z,16.32
2022-10-17T07:25:06.430Z,16.33
2022-10-17T07:26:06.560Z,16.34
2022-10-17T07:27:06.618Z,16.4
2022-10-17T07:28:06.918Z,16.44
2022-10-17T07:29:09.641Z,16.49
2022-10-17T07:30:06.481Z,16.57
2022-10-17T07:31:06.539Z,16.66
2022-10-17T07:32:06.577Z,16.71
2022-10-17T07:33:06.924Z,16.72
2022-10-17T07:34:06.531Z,16.7
2022-10-17T07:35:06.524Z,16.73
2022-10-17T07:36:06.541Z,16.72
2022-10-17T07:37:06.436Z,16.8
2022-10-17T07:38:06.792Z,16.85
2022-10-17T07:39:06.536Z,16.88
2022-10-17T07:40:11.901Z,16.91
2022-10-17T07:41:06.538Z,16.96
2022-10-17T07:42:06.448Z,17
2022-10-17T07:43:06.924Z,17.04
2022-10-17T07:44:06.511Z,17.1
2022-10-17T07:45:06.500Z,17.15
2022-10-17T07:46:06.558Z,17.19
2022-10-17T07:47:06.529Z,17.23
2022-10-17T07:48:06.791Z,17.29
2022-10-17T07:49:06.595Z,17.35
2022-10-17T07:50:06.501Z,17.41
2022-10-17T07:51:09.502Z,17.5
2022-10-17T07:52:06.634Z,17.58
2022-10-17T07:53:06.872Z,17.62
2022-10-17T07:54:06.527Z,17.7
2022-10-17T07:55:06.566Z,17.75
2022-10-17T07:56:06.536Z,17.82
2022-10-17T07:57:06.426Z,17.87
2022-10-17T07:58:06.869Z,17.94
2022-10-17T07:59:09.195Z,18.01
2022-10-17T08:00:06.418Z,18.1
2022-10-17T08:01:08.351Z,18.15
2022-10-17T08:02:09.470Z,18.24
2022-10-17T08:03:06.816Z,18.32
2022-10-17T08:04:06.648Z,18.4
2022-10-17T08:05:06.647Z,18.49
2022-10-17T08:06:06.504Z,18.56
2022-10-17T08:07:19.117Z,18.66
2022-10-17T08:08:06.799Z,18.75
2022-10-17T08:09:06.435Z,18.82
2022-10-17T08:10:06.584Z,18.97
2022-10-17T08:11:06.611Z,19.07
2022-10-17T08:12:06.490Z,19.18
2022-10-17T08:13:12.474Z,19.28
2022-10-17T08:14:06.530Z,19.4
2022-10-17T08:15:06.410Z,19.54
2022-10-17T08:16:06.424Z,19.71
2022-10-17T08:17:06.431Z,19.82
2022-10-17T08:18:06.874Z,19.9
2022-10-17T08:19:06.435Z,20.01
2022-10-17T08:20:06.448Z,20.06
2022-10-17T08:21:06.446Z,20.11
2022-10-17T08:22:06.532Z,20.14
2022-10-17T08:23:06.872Z,20.19
2022-10-17T08:24:09.441Z,20.2
2022-10-17T08:25:06.528Z,20.19
2022-10-17T08:26:06.442Z,20.11
2022-10-17T08:27:06.444Z,20.08
2022-10-17T08:29:14.825Z,20.09
2022-10-17T08:30:14.765Z,20.07
2022-10-17T08:31:14.848Z,20.05
2022-10-17T08:32:14.972Z,20.01
2022-10-17T08:33:15.115Z,19.97
2022-10-17T08:34:17.917Z,19.99
2022-10-17T08:35:14.973Z,20.02
2022-10-17T08:36:14.981Z,20.08
2022-10-17T08:37:14.919Z,20.12
2022-10-17T08:38:16.821Z,20.05
2022-10-17T08:39:14.840Z,20.01
2022-10-17T08:40:14.757Z,19.97
2022-10-17T08:41:14.750Z,20.02
2022-10-17T08:42:14.824Z,20.08
2022-10-17T08:43:15.113Z,20.15
2022-10-17T08:44:14.854Z,20.2
2022-10-17T08:45:17.797Z,20.27
2022-10-17T08:47:22.675Z,20.33
2022-10-17T08:48:23.034Z,20.37
2022-10-17T08:49:22.702Z,20.41
2022-10-17T08:50:22.705Z,20.41
2022-10-17T08:51:22.685Z,20.44
2022-10-17T08:52:25.676Z,20.46
2022-10-17T08:53:22.955Z,20.42
2022-10-17T08:54:22.798Z,20.46
2022-10-17T08:55:22.660Z,20.47
2022-10-17T08:56:25.151Z,20.51
2022-10-17T08:57:22.736Z,20.57
2022-10-17T08:58:22.998Z,20.59
2022-10-17T08:59:22.572Z,20.55
2022-10-17T09:00:22.731Z,20.58
2022-10-17T09:01:22.694Z,20.58
2022-10-17T09:02:22.668Z,20.57
2022-10-17T09:03:28.767Z,20.58
2022-10-17T09:04:22.820Z,20.63
2022-10-17T09:05:26.359Z,20.68
2022-10-17T09:06:22.593Z,20.79
2022-10-17T09:07:22.673Z,20.85
2022-10-17T09:08:23.266Z,20.83
2022-10-17T09:09:22.576Z,20.81
2022-10-17T09:10:22.581Z,20.88
2022-10-17T09:11:22.669Z,20.9
2022-10-17T09:12:22.683Z,20.87
2022-10-17T09:13:23.055Z,20.83
2022-10-17T09:14:25.787Z,20.8
2022-10-17T09:15:22.677Z,20.8
2022-10-17T09:16:22.694Z,20.77
2022-10-17T09:17:22.743Z,20.71
2022-10-17T09:18:22.949Z,20.73
2022-10-17T09:19:22.699Z,20.7
2022-10-17T09:20:22.592Z,20.67
2022-10-17T09:21:22.583Z,20.63
2022-10-17T09:22:22.596Z,20.57
2022-10-17T09:23:22.713Z,20.52
2022-10-17T09:24:22.713Z,20.5
2022-10-17T09:25:25.728Z,20.5
2022-10-17T09:26:22.772Z,20.49
2022-10-17T09:27:22.617Z,20.49
2022-10-17T09:28:23.103Z,20.46
2022-10-17T09:29:22.744Z,20.55
2022-10-17T09:30:43.603Z,20.62
2022-10-17T09:31:22.659Z,20.69
2022-10-17T09:32:22.589Z,20.8
2022-10-17T09:33:35.184Z,20.9
2022-10-17T09:34:25.261Z,20.89
2022-10-17T09:35:22.589Z,20.91
2022-10-17T09:36:25.602Z,20.83
2022-10-17T09:37:22.684Z,20.8
2022-10-17T09:38:23.024Z,20.83
2022-10-17T09:39:22.764Z,20.8
2022-10-17T09:40:22.696Z,20.76
2022-10-17T09:41:43.466Z,20.73
2022-10-17T09:42:22.703Z,20.8
2022-10-17T09:43:23.016Z,20.87
2022-10-17T09:44:22.749Z,20.92
2022-10-17T09:45:22.734Z,20.94
2022-10-17T09:46:22.763Z,20.89
2022-10-17T09:47:25.718Z,20.92
2022-10-17T09:48:22.951Z,20.96
2022-10-17T09:49:22.775Z,21.02
2022-10-17T09:50:22.591Z,20.98
2022-10-17T09:51:26.074Z,20.98
2022-10-17T09:52:22.749Z,20.92
2022-10-17T09:53:22.942Z,20.97
2022-10-17T09:54:22.583Z,21.08
2022-10-17T09:55:22.593Z,21.2
2022-10-17T09:56:22.590Z,21.3
2022-10-17T09:57:22.611Z,21.41
2022-10-17T09:58:28.675Z,21.48
2022-10-17T09:59:22.674Z,21.57
2022-10-17T10:00:22.606Z,21.48
2022-10-17T10:01:24.158Z,21.44
2022-10-17T10:02:22.702Z,21.41
2022-10-17T10:03:22.949Z,21.46
2022-10-17T10:04:22.722Z,21.53
2022-10-17T10:05:22.728Z,21.61
2022-10-17T10:06:22.717Z,21.71
2022-10-17T10:07:26.885Z,21.78
2022-10-17T10:08:23.027Z,21.81
2022-10-17T10:09:25.603Z,21.81
2022-10-17T10:10:22.665Z,21.88
2022-10-17T10:11:22.568Z,21.94
2022-10-17T10:12:22.577Z,21.98
2022-10-17T10:13:23.134Z,22.03
2022-10-17T10:14:22.696Z,22.07
2022-10-17T10:15:22.614Z,22.08
2022-10-17T10:16:22.602Z,22.03
2022-10-17T10:17:22.723Z,22.03
2022-10-17T10:18:22.993Z,22.05
2022-10-17T10:19:22.680Z,22.08
2022-10-17T10:20:25.608Z,22.13
2022-10-17T10:21:22.798Z,22.11
2022-10-17T10:22:22.711Z,22.11
2022-10-17T10:23:23.020Z,22.1
2022-10-17T10:24:25.845Z,22.26
2022-10-17T10:25:22.595Z,22.35
2022-10-17T10:26:25.627Z,22.41
2022-10-17T10:27:22.699Z,22.51
2022-10-17T10:28:23.134Z,22.57
2022-10-17T10:29:22.676Z,22.65
2022-10-17T10:30:22.699Z,22.77
2022-10-17T10:31:22.698Z,22.77
2022-10-17T10:32:22.571Z,22.82
2022-10-17T10:33:23.021Z,22.89
2022-10-17T10:34:22.825Z,22.94
2022-10-17T10:35:22.737Z,22.93
2022-10-17T10:36:22.586Z,22.97
2022-10-17T10:37:25.706Z,23.02
2022-10-17T10:38:22.974Z,22.99
2022-10-17T10:39:22.660Z,22.99
2022-10-17T10:40:22.724Z,22.86
2022-10-17T10:41:22.632Z,22.81
2022-10-17T10:42:22.716Z,22.81
2022-10-17T10:43:23.001Z,22.81
2022-10-17T10:44:22.577Z,22.77
2022-10-17T10:45:35.902Z,22.71
2022-10-17T10:46:22.573Z,22.59
2022-10-17T10:47:22.595Z,22.49
2022-10-17T10:48:28.673Z,22.5
2022-10-17T10:49:22.694Z,22.61
2022-10-17T10:50:22.682Z,22.76
2022-10-17T10:51:22.586Z,22.86
2022-10-17T10:52:22.744Z,23.09
2022-10-17T10:53:23.020Z,23.22
2022-10-17T10:54:22.675Z,23.32
2022-10-17T10:55:22.678Z,23.39
2022-10-17T10:56:22.713Z,23.54
2022-10-17T10:57:22.706Z,23.71
2022-10-17T10:58:22.953Z,23.91
2022-10-17T10:59:25.620Z,24.05
2022-10-17T11:00:22.846Z,24.18
2022-10-17T11:01:22.711Z,24.29
2022-10-17T11:02:22.763Z,24.3
2022-10-17T11:03:23.015Z,24.26
2022-10-17T11:04:22.730Z,24.33
2022-10-17T11:05:22.691Z,24.35
2022-10-17T11:06:22.673Z,24.34
2022-10-17T11:07:23.017Z,24.38
2022-10-17T11:08:22.688Z,24.37
2022-10-17T11:09:22.695Z,24.4
2022-10-17T11:10:25.693Z,24.45
2022-10-17T11:11:22.737Z,24.45
2022-10-17T11:12:23.069Z,24.39
2022-10-17T11:13:22.958Z,24.42
2022-10-17T11:14:22.674Z,24.47
2022-10-17T11:15:22.694Z,24.51
2022-10-17T11:16:22.677Z,24.68
2022-10-17T11:17:23.017Z,24.66
2022-10-17T11:18:22.808Z,24.61
2022-10-17T11:19:22.798Z,24.55
2022-10-17T11:20:22.665Z,24.54
2022-10-17T11:21:25.589Z,24.64
2022-10-17T11:22:25.315Z,24.67
2022-10-17T11:23:22.670Z,24.64
2022-10-17T11:24:22.735Z,24.66
2022-10-17T11:25:22.676Z,24.67
2022-10-17T11:26:22.710Z,24.75
2022-10-17T11:27:22.651Z,24.88
2022-10-17T11:28:23.165Z,24.98
2022-10-17T11:29:22.778Z,24.99
2022-10-17T11:30:22.796Z,25.02
2022-10-17T11:31:22.699Z,25.01
2022-10-17T11:32:28.901Z,24.85
2022-10-17T11:33:22.763Z,24.78
2022-10-17T11:34:22.690Z,24.83
2022-10-17T11:35:22.596Z,24.89
2022-10-17T11:36:22.661Z,24.85
2022-10-17T11:37:23.058Z,24.72
2022-10-17T11:38:22.635Z,24.8
2022-10-17T11:39:22.694Z,24.87
2022-10-17T11:40:24.482Z,24.88
2022-10-17T11:41:22.565Z,24.98
2022-10-17T11:42:22.949Z,25.14
2022-10-17T11:43:25.988Z,25.22
2022-10-17T11:44:22.686Z,25.32
2022-10-17T11:45:22.570Z,25.33
2022-10-17T11:46:22.594Z,25.39
2022-10-17T11:47:23.027Z,25.5
2022-10-17T11:48:22.804Z,25.59
2022-10-17T11:49:22.623Z,25.67
2022-10-17T11:52:01.211Z,25.44
2022-10-17T11:53:00.300Z,25.4
2022-10-17T11:53:59.470Z,25.41
2022-10-17T11:54:59.353Z,25.3
2022-10-17T11:55:59.477Z,25.28
2022-10-17T11:57:02.537Z,25.24
2022-10-17T11:57:59.745Z,25.14
2022-10-17T11:58:59.738Z,25.05
2022-10-17T11:59:59.569Z,25.04
2022-10-17T12:00:59.537Z,25.03
2022-10-17T12:01:59.378Z,25.05
2022-10-17T12:02:59.745Z,25.07
2022-10-17T12:03:59.484Z,25.09
2022-10-17T12:04:59.376Z,25.13
2022-10-17T12:05:59.352Z,25.18
2022-10-17T12:06:59.491Z,25.14
2022-10-17T12:08:05.468Z,25.17
2022-10-17T12:08:59.573Z,25.2
2022-10-17T12:09:59.383Z,25.13
2022-10-17T12:10:59.504Z,25.13
2022-10-17T12:11:59.433Z,25.15
2022-10-17T12:12:59.793Z,25.12
2022-10-17T12:14:02.622Z,25.02
2022-10-17T12:14:59.462Z,24.95
2022-10-17T12:15:59.510Z,24.96
2022-10-17T12:16:59.579Z,24.87
2022-10-17T12:17:59.729Z,24.85
2022-10-17T12:19:02.535Z,24.89
2022-10-17T12:19:59.572Z,24.86
2022-10-17T12:20:59.591Z,24.75
2022-10-17T12:21:59.569Z,24.79
2022-10-17T12:23:00.620Z,24.81
2022-10-17T12:23:59.450Z,24.86
2022-10-17T12:24:59.482Z,24.86
2022-10-17T12:26:01.580Z,24.85
2022-10-17T12:26:59.572Z,24.85
2022-10-17T12:27:59.726Z,24.84
2022-10-17T12:28:59.766Z,24.83
2022-10-17T12:30:02.485Z,24.78
2022-10-17T12:30:59.427Z,24.8
2022-10-17T12:31:59.499Z,24.83
2022-10-17T12:33:06.082Z,24.84
2022-10-17T12:33:59.530Z,24.83
2022-10-17T12:34:59.523Z,24.95
2022-10-17T12:35:59.451Z,24.98
2022-10-17T12:36:59.365Z,24.92
2022-10-17T12:37:59.808Z,24.95
2022-10-17T12:38:59.451Z,25.07
2022-10-17T12:39:59.381Z,25.07
2022-10-17T12:41:02.410Z,25.1
2022-10-17T12:41:59.522Z,25.18
2022-10-17T12:42:59.816Z,25.2
2022-10-17T12:43:59.958Z,25.19
2022-10-17T12:44:59.575Z,25.3
2022-10-17T12:45:59.467Z,25.23
2022-10-17T12:46:59.374Z,25.16
2022-10-17T12:47:59.808Z,25.12
2022-10-17T12:48:59.529Z,25.12
2022-10-17T12:49:59.507Z,25.14
2022-10-17T12:51:17.650Z,25.18
2022-10-17T12:52:02.453Z,25.15
2022-10-17T12:52:59.729Z,25.19
2022-10-17T12:53:59.581Z,25.2
2022-10-17T12:55:11.687Z,25.17
2022-10-17T12:55:59.372Z,25.11
2022-10-17T12:56:59.365Z,25.08
2022-10-17T12:57:59.738Z,25.1
2022-10-17T12:58:59.807Z,25.1
2022-10-17T12:59:59.414Z,25.13
2022-10-17T13:01:22.750Z,25.23